Time;durP1;ratioP1;P1;durP2;ratioP2;P2;SDS_P1;SDS_P2;PMS_P1;PMS_P2;Temp;Humidity;BMP_temperature;BMP_pressure;BME280_temperature;BME280_humidity;BME280_pressure;Samples;Min_cycle;Max_cycle;Signal;HPM_P1;HPM_P2
2023/08/19 00:01:59;;;;;;;16.17;9.52;;;;;;;;;;5029296;28;20034;-74
2023/08/19 00:04:25;;;;;;;23.08;9.70;;;;;;;;;;5033423;28;20033;-74
2023/08/19 00:06:51;;;;;;;19.58;9.40;;;;;;;;;;5034049;28;20495;-74
2023/08/19 00:09:17;;;;;;;19.08;9.20;;;;;;;;;;5034181;28;20018;-74
2023/08/19 00:11:43;;;;;;;22.48;10.32;;;;;;;;;;5033739;28;20388;-75
2023/08/19 00:14:09;;;;;;;19.15;9.43;;;;;;;;;;5033773;28;20033;-74
2023/08/19 00:16:35;;;;;;;23.73;9.43;;;;;;;;;;5036452;28;20037;-74
2023/08/19 00:19:01;;;;;;;21.50;9.35;;;;;;;;;;5033755;28;20030;-73
2023/08/19 00:21:27;;;;;;;21.23;10.02;;;;;;;;;;5033613;28;20025;-73
2023/08/19 00:23:54;;;;;;;23.08;10.93;;;;;;;;;;5033117;28;20034;-73
2023/08/19 00:26:20;;;;;;;16.65;9.82;;;;;;;;;;5033314;28;20091;-73
2023/08/19 00:28:46;;;;;;;23.73;9.40;;;;;;;;;;5033952;28;20428;-74
2023/08/19 00:31:12;;;;;;;19.35;9.77;;;;;;;;;;5033876;28;20030;-74
2023/08/19 00:33:38;;;;;;;18.35;9.70;;;;;;;;;;5033052;28;20037;-74
2023/08/19 00:36:04;;;;;;;23.83;10.65;;;;;;;;;;5033686;28;20378;-73
2023/08/19 00:38:30;;;;;;;17.10;9.98;;;;;;;;;;5033606;28;20029;-73
2023/08/19 00:40:56;;;;;;;18.38;10.93;;;;;;;;;;5037525;28;20116;-74
2023/08/19 00:43:22;;;;;;;18.90;9.80;;;;;;;;;;5037398;28;20021;-73
2023/08/19 00:45:50;;;;;;;20.13;10.25;;;;;;;;;;5034344;28;20033;-73
2023/08/19 00:48:17;;;;;;;24.40;9.85;;;;;;;;;;5033301;28;20117;-73
2023/08/19 00:50:43;;;;;;;18.00;10.10;;;;;;;;;;5033170;28;20124;-74
2023/08/19 00:53:10;;;;;;;23.20;10.70;;;;;;;;;;5032095;28;20468;-74
2023/08/19 00:55:36;;;;;;;26.88;10.60;;;;;;;;;;5033862;28;20022;-74
2023/08/19 00:58:07;;;;;;;22.95;10.93;;;;;;;;;;5040040;28;20361;-74
2023/08/19 01:00:34;;;;;;;19.27;10.52;;;;;;;;;;5045737;28;20033;-74
2023/08/19 01:03:00;;;;;;;19.67;11.25;;;;;;;;;;5043835;28;20036;-74
2023/08/19 01:05:38;;;;;;;22.63;11.13;;;;;;;;;;5032620;28;20087;-74
2023/08/19 01:08:04;;;;;;;20.67;10.93;;;;;;;;;;5044218;28;20029;-74
2023/08/19 01:11:00;;;;;;;17.58;10.50;;;;;;;;;;5037094;28;20041;-73
2023/08/19 01:13:31;;;;;;;22.15;12.00;;;;;;;;;;5026536;28;20222;-75
2023/08/19 01:16:03;;;;;;;21.80;11.20;;;;;;;;;;5041475;28;20025;-73
2023/08/19 01:18:30;;;;;;;26.75;11.70;;;;;;;;;;5032248;28;20468;-74
2023/08/19 01:20:56;;;;;;;17.27;11.27;;;;;;;;;;5032458;28;20036;-73
2023/08/19 01:23:38;;;;;;;24.00;11.32;;;;;;;;;;5032658;28;20105;-74
2023/08/19 01:26:04;;;;;;;22.60;11.45;;;;;;;;;;5050703;28;20022;-73
2023/08/19 01:28:30;;;;;;;20.90;10.85;;;;;;;;;;5048672;28;20073;-72
2023/08/19 01:30:56;;;;;;;23.13;11.82;;;;;;;;;;5034625;28;20056;-74
2023/08/19 01:33:22;;;;;;;20.90;10.77;;;;;;;;;;5033877;28;20353;-76
2023/08/19 01:36:14;;;;;;;19.73;10.98;;;;;;;;;;5032624;28;20383;-73
2023/08/19 01:38:44;;;;;;;22.52;10.65;;;;;;;;;;5031466;28;20041;-75
2023/08/19 01:41:11;;;;;;;20.13;11.27;;;;;;;;;;5033659;28;20036;-75
2023/08/19 01:43:38;;;;;;;19.33;11.35;;;;;;;;;;5023193;28;20474;-74
2023/08/19 01:46:04;;;;;;;23.25;11.57;;;;;;;;;;5031752;28;20037;-73
2023/08/19 01:48:30;;;;;;;22.95;10.85;;;;;;;;;;5031813;28;20109;-75
2023/08/19 01:50:55;;;;;;;19.77;11.70;;;;;;;;;;5031932;28;20052;-73
2023/08/19 01:53:21;;;;;;;17.20;11.13;;;;;;;;;;5031406;28;20029;-74
2023/08/19 01:55:47;;;;;;;21.42;12.13;;;;;;;;;;5034252;28;20030;-74
2023/08/19 01:58:13;;;;;;;21.25;11.02;;;;;;;;;;5031941;28;20034;-74
2023/08/19 02:00:39;;;;;;;27.20;12.45;;;;;;;;;;5034688;28;20444;-73
2023/08/19 02:03:07;;;;;;;22.50;12.30;;;;;;;;;;5031021;28;20087;-74
2023/08/19 02:05:33;;;;;;;26.50;11.93;;;;;;;;;;5031757;28;20013;-75
2023/08/19 02:07:59;;;;;;;20.10;12.07;;;;;;;;;;5032327;28;20029;-75
2023/08/19 02:10:25;;;;;;;21.33;11.32;;;;;;;;;;5014854;28;20030;-75
2023/08/19 02:12:51;;;;;;;22.65;11.00;;;;;;;;;;5026260;28;20132;-74
2023/08/19 02:15:17;;;;;;;18.38;11.35;;;;;;;;;;5032349;28;20038;-74
2023/08/19 02:17:43;;;;;;;17.70;11.73;;;;;;;;;;5045182;28;20226;-74
2023/08/19 02:20:10;;;;;;;23.05;12.57;;;;;;;;;;5055089;28;20028;-73
2023/08/19 02:22:37;;;;;;;19.00;11.48;;;;;;;;;;5051439;28;20100;-73
2023/08/19 02:25:03;;;;;;;19.02;11.57;;;;;;;;;;5052036;28;20029;-74
2023/08/19 02:27:29;;;;;;;21.23;13.05;;;;;;;;;;5051786;28;20045;-75
2023/08/19 02:29:55;;;;;;;20.58;12.30;;;;;;;;;;5054336;28;20106;-74
2023/08/19 02:32:21;;;;;;;21.90;12.90;;;;;;;;;;5051772;28;20025;-75
2023/08/19 02:34:47;;;;;;;21.50;12.48;;;;;;;;;;5052903;28;20117;-74
2023/08/19 02:37:14;;;;;;;16.35;11.35;;;;;;;;;;5052027;28;20075;-75
2023/08/19 02:39:40;;;;;;;21.00;13.50;;;;;;;;;;5052137;28;20017;-74
2023/08/19 02:42:06;;;;;;;26.10;13.32;;;;;;;;;;5051157;28;20029;-73
2023/08/19 02:44:32;;;;;;;24.23;12.65;;;;;;;;;;5053350;28;20505;-74
2023/08/19 02:46:58;;;;;;;22.55;12.18;;;;;;;;;;5050366;28;20033;-75
2023/08/19 02:49:24;;;;;;;25.58;14.10;;;;;;;;;;5052069;28;20067;-75
2023/08/19 02:51:50;;;;;;;22.65;14.23;;;;;;;;;;5051824;28;20028;-75
2023/08/19 02:54:16;;;;;;;19.83;12.40;;;;;;;;;;5050201;28;20461;-74
2023/08/19 02:56:42;;;;;;;26.55;13.23;;;;;;;;;;5051589;28;20029;-73
2023/08/19 02:59:08;;;;;;;27.88;14.32;;;;;;;;;;5051912;28;20025;-74
2023/08/19 03:01:34;;;;;;;19.15;12.75;;;;;;;;;;5052645;28;20021;-75
2023/08/19 03:04:01;;;;;;;20.85;12.60;;;;;;;;;;5053766;28;20027;-74
2023/08/19 03:06:27;;;;;;;25.27;14.38;;;;;;;;;;5054107;28;20017;-74
2023/08/19 03:08:53;;;;;;;22.00;13.45;;;;;;;;;;5052414;28;20071;-75
2023/08/19 03:11:19;;;;;;;28.33;14.50;;;;;;;;;;5057904;28;20120;-74
2023/08/19 03:13:45;;;;;;;24.95;15.07;;;;;;;;;;5054224;28;20071;-74
2023/08/19 03:16:11;;;;;;;27.90;15.68;;;;;;;;;;5056406;28;20029;-73
2023/08/19 03:18:37;;;;;;;35.28;13.85;;;;;;;;;;5055663;28;20032;-75
2023/08/19 03:21:02;;;;;;;19.80;13.88;;;;;;;;;;5035055;28;20037;-76
2023/08/19 03:23:28;;;;;;;23.58;15.75;;;;;;;;;;5033098;28;20507;-77
2023/08/19 03:25:56;;;;;;;24.20;15.55;;;;;;;;;;5032636;28;20023;-77
2023/08/19 03:28:22;;;;;;;25.30;14.70;;;;;;;;;;5032344;28;20108;-77
2023/08/19 03:30:48;;;;;;;19.27;14.43;;;;;;;;;;5029798;28;20021;-77
2023/08/19 03:33:14;;;;;;;39.17;19.35;;;;;;;;;;5031177;28;20108;-77
2023/08/19 03:35:40;;;;;;;24.33;15.73;;;;;;;;;;5032468;28;20479;-77
2023/08/19 03:38:06;;;;;;;21.85;14.38;;;;;;;;;;5035055;28;20021;-77
2023/08/19 03:40:32;;;;;;;25.70;14.38;;;;;;;;;;5035000;28;20029;-77
2023/08/19 03:42:58;;;;;;;22.17;15.05;;;;;;;;;;5035481;28;20021;-77
2023/08/19 03:45:24;;;;;;;27.45;14.98;;;;;;;;;;5035911;28;20052;-75
2023/08/19 03:47:50;;;;;;;31.92;18.70;;;;;;;;;;5036885;28;20107;-73
2023/08/19 03:50:16;;;;;;;28.13;16.10;;;;;;;;;;5036728;28;20026;-74
2023/08/19 03:52:42;;;;;;;22.92;15.20;;;;;;;;;;5035067;28;20036;-73
2023/08/19 03:55:08;;;;;;;21.58;14.85;;;;;;;;;;5035190;28;20026;-75
2023/08/19 03:57:34;;;;;;;30.80;15.52;;;;;;;;;;5035136;28;20075;-74
2023/08/19 04:00:00;;;;;;;29.33;15.60;;;;;;;;;;5036077;28;20029;-74
2023/08/19 04:02:27;;;;;;;26.27;15.30;;;;;;;;;;5034016;28;20120;-74
2023/08/19 04:05:01;;;;;;;22.05;14.52;;;;;;;;;;5035035;28;20029;-74
2023/08/19 04:07:27;;;;;;;30.50;18.13;;;;;;;;;;5035062;28;20084;-75
2023/08/19 04:09:55;;;;;;;29.27;18.85;;;;;;;;;;5034899;28;20017;-74
2023/08/19 04:12:21;;;;;;;33.47;16.13;;;;;;;;;;5034946;28;20017;-74
2023/08/19 04:14:47;;;;;;;32.47;17.40;;;;;;;;;;5034773;28;20069;-74
2023/08/19 04:17:13;;;;;;;31.15;16.80;;;;;;;;;;5035009;28;20403;-74
2023/08/19 04:19:39;;;;;;;23.15;15.88;;;;;;;;;;5037863;28;20047;-74
2023/08/19 04:22:05;;;;;;;30.77;16.77;;;;;;;;;;5037723;28;20033;-74
2023/08/19 04:24:32;;;;;;;32.88;16.90;;;;;;;;;;5036108;28;20030;-73
2023/08/19 04:26:58;;;;;;;29.33;16.73;;;;;;;;;;5037054;28;20022;-74
2023/08/19 04:29:24;;;;;;;27.25;17.73;;;;;;;;;;5034963;28;20036;-73
2023/08/19 04:31:50;;;;;;;24.98;16.25;;;;;;;;;;5034442;28;20022;-73
2023/08/19 04:34:16;;;;;;;25.58;15.98;;;;;;;;;;5034539;28;20096;-74
2023/08/19 04:36:42;;;;;;;37.65;22.92;;;;;;;;;;5036954;28;20025;-75
2023/08/19 04:39:08;;;;;;;38.85;20.75;;;;;;;;;;5034812;28;20471;-74
2023/08/19 04:41:34;;;;;;;28.17;16.65;;;;;;;;;;5035531;28;20032;-78
2023/08/19 04:44:00;;;;;;;29.95;17.33;;;;;;;;;;5034630;28;20033;-76
2023/08/19 04:46:26;;;;;;;26.30;17.08;;;;;;;;;;5036620;28;20034;-75
2023/08/19 04:48:52;;;;;;;31.38;18.15;;;;;;;;;;5035173;28;20029;-75
2023/08/19 04:51:18;;;;;;;26.80;17.98;;;;;;;;;;5035154;28;20457;-77
2023/08/19 04:53:44;;;;;;;26.17;16.38;;;;;;;;;;5034370;28;20029;-76
2023/08/19 04:56:10;;;;;;;38.58;17.35;;;;;;;;;;5035468;28;20029;-74
2023/08/19 04:58:36;;;;;;;29.33;16.30;;;;;;;;;;5034085;28;20022;-74
2023/08/19 05:01:02;;;;;;;23.65;15.77;;;;;;;;;;5033923;28;20553;-76
2023/08/19 05:03:28;;;;;;;27.73;15.80;;;;;;;;;;5034071;28;20053;-74
2023/08/19 05:05:54;;;;;;;23.75;15.40;;;;;;;;;;5037039;28;20025;-74
2023/08/19 05:08:20;;;;;;;32.03;16.20;;;;;;;;;;5037910;28;20053;-74
2023/08/19 05:10:46;;;;;;;30.23;16.80;;;;;;;;;;5031629;28;20033;-74
2023/08/19 05:13:12;;;;;;;28.38;16.77;;;;;;;;;;5032932;28;20072;-76
2023/08/19 05:15:38;;;;;;;25.45;16.20;;;;;;;;;;5035346;28;20266;-75
2023/08/19 05:18:05;;;;;;;26.55;16.65;;;;;;;;;;5033950;28;20495;-76
2023/08/19 05:20:31;;;;;;;23.85;15.18;;;;;;;;;;5034658;28;20032;-74
2023/08/19 05:22:57;;;;;;;21.95;15.85;;;;;;;;;;5032764;28;20021;-74
2023/08/19 05:25:23;;;;;;;24.73;14.25;;;;;;;;;;5036329;28;20029;-75
2023/08/19 05:27:49;;;;;;;24.63;14.30;;;;;;;;;;5033611;28;20022;-74
2023/08/19 05:30:15;;;;;;;24.17;14.55;;;;;;;;;;5033945;28;20021;-75
2023/08/19 05:32:41;;;;;;;18.10;13.63;;;;;;;;;;5033636;28;20048;-73
2023/08/19 05:35:07;;;;;;;29.85;13.95;;;;;;;;;;5034407;28;20097;-72
2023/08/19 05:37:33;;;;;;;23.77;14.05;;;;;;;;;;5032901;28;20033;-74
2023/08/19 05:39:59;;;;;;;20.17;13.10;;;;;;;;;;5033091;28;20026;-73
2023/08/19 05:42:25;;;;;;;21.90;13.55;;;;;;;;;;5033038;28;20395;-77
2023/08/19 05:44:51;;;;;;;20.13;13.68;;;;;;;;;;5032123;28;20025;-73
2023/08/19 05:47:17;;;;;;;20.27;14.38;;;;;;;;;;5033327;28;20323;-73
2023/08/19 05:49:43;;;;;;;18.65;12.45;;;;;;;;;;5032099;28;20101;-74
2023/08/19 05:52:09;;;;;;;22.90;14.27;;;;;;;;;;5033508;28;20054;-75
2023/08/19 05:54:35;;;;;;;20.83;12.82;;;;;;;;;;5034103;28;20087;-75
2023/08/19 05:57:01;;;;;;;24.20;12.57;;;;;;;;;;5033333;28;20098;-73
2023/08/19 05:59:27;;;;;;;21.70;13.13;;;;;;;;;;5032944;28;20065;-73
2023/08/19 06:01:53;;;;;;;19.23;11.50;;;;;;;;;;5031877;28;20467;-74
2023/08/19 06:04:19;;;;;;;20.70;11.98;;;;;;;;;;5033434;28;20052;-73
2023/08/19 06:06:45;;;;;;;21.25;12.75;;;;;;;;;;5040849;28;20029;-74
2023/08/19 06:09:11;;;;;;;25.58;13.50;;;;;;;;;;5044534;28;20041;-72
2023/08/19 06:11:48;;;;;;;19.65;13.15;;;;;;;;;;5040848;28;20435;-73
2023/08/19 06:14:14;;;;;;;24.63;13.23;;;;;;;;;;5039273;28;20487;-74
2023/08/19 06:16:41;;;;;;;20.98;11.95;;;;;;;;;;5033753;28;20057;-76
2023/08/19 06:19:07;;;;;;;17.65;11.27;;;;;;;;;;5037433;28;20029;-73
2023/08/19 06:21:33;;;;;;;18.42;12.57;;;;;;;;;;5037302;28;20022;-74
2023/08/19 06:23:59;;;;;;;18.10;12.45;;;;;;;;;;5032618;28;20414;-76
2023/08/19 06:26:25;;;;;;;19.65;13.40;;;;;;;;;;5033904;28;20030;-77
2023/08/19 06:28:52;;;;;;;24.63;16.13;;;;;;;;;;5032801;28;20022;-75
2023/08/19 06:31:18;;;;;;;24.50;16.13;;;;;;;;;;5047033;28;20021;-76
2023/08/19 06:33:44;;;;;;;21.30;12.35;;;;;;;;;;5051590;28;20033;-76
2023/08/19 06:36:15;;;;;;;20.52;11.35;;;;;;;;;;5052089;28;20032;-75
2023/08/19 06:38:42;;;;;;;17.33;11.52;;;;;;;;;;5052100;28;20033;-76
2023/08/19 06:41:09;;;;;;;20.10;11.93;;;;;;;;;;5052807;28;20036;-75
2023/08/19 06:43:36;;;;;;;22.67;11.40;;;;;;;;;;5051607;28;20037;-75
2023/08/19 06:46:02;;;;;;;16.55;10.57;;;;;;;;;;5052120;28;20036;-76
2023/08/19 06:48:29;;;;;;;16.75;11.90;;;;;;;;;;5052150;28;20029;-76
2023/08/19 06:50:55;;;;;;;18.13;10.52;;;;;;;;;;5051866;28;20400;-76
2023/08/19 06:53:22;;;;;;;14.35;10.60;;;;;;;;;;5051240;28;20036;-76
2023/08/19 06:56:02;;;;;;;13.90;10.68;;;;;;;;;;5051941;28;20048;-76
2023/08/19 06:58:29;;;;;;;26.98;11.63;;;;;;;;;;5051679;28;20025;-77
2023/08/19 07:00:59;;;;;;;17.55;11.00;;;;;;;;;;5052138;28;20077;-77
2023/08/19 07:03:29;;;;;;;23.08;11.50;;;;;;;;;;5051003;28;20310;-76
2023/08/19 07:05:56;;;;;;;19.58;11.20;;;;;;;;;;5051976;28;20021;-74
2023/08/19 07:08:23;;;;;;;17.23;10.90;;;;;;;;;;5052701;28;20025;-74
2023/08/19 07:10:49;;;;;;;17.08;11.27;;;;;;;;;;5051509;28;20025;-74
2023/08/19 07:13:15;;;;;;;14.93;10.95;;;;;;;;;;5049397;28;20032;-75
2023/08/19 07:15:43;;;;;;;20.17;11.52;;;;;;;;;;5053981;28;20017;-73
2023/08/19 07:18:10;;;;;;;22.40;11.68;;;;;;;;;;5051616;28;20021;-74
2023/08/19 07:20:37;;;;;;;16.58;10.35;;;;;;;;;;5051772;28;20044;-76
2023/08/19 07:23:04;;;;;;;16.73;10.82;;;;;;;;;;5051233;28;20031;-74
2023/08/19 07:25:30;;;;;;;16.80;10.77;;;;;;;;;;5054011;28;20110;-73
2023/08/19 07:27:58;;;;;;;21.25;10.65;;;;;;;;;;5054137;28;20029;-75
2023/08/19 07:30:24;;;;;;;22.63;10.38;;;;;;;;;;5052256;28;20035;-73
2023/08/19 07:32:50;;;;;;;35.72;11.18;;;;;;;;;;5055670;28;20064;-72
2023/08/19 07:35:16;;;;;;;16.00;10.70;;;;;;;;;;5053527;28;20028;-74
2023/08/19 07:37:43;;;;;;;17.85;10.90;;;;;;;;;;5057586;28;20021;-74
2023/08/19 07:40:09;;;;;;;12.45;10.13;;;;;;;;;;5054103;28;20436;-74
2023/08/19 07:42:35;;;;;;;14.93;11.00;;;;;;;;;;5053046;28;20025;-76
2023/08/19 07:45:01;;;;;;;14.20;10.30;;;;;;;;;;5051453;28;20025;-75
2023/08/19 07:47:27;;;;;;;23.63;11.00;;;;;;;;;;5054544;28;20387;-76
2023/08/19 07:49:53;;;;;;;22.70;10.75;;;;;;;;;;5035600;28;20031;-75
2023/08/19 07:52:19;;;;;;;17.02;10.35;;;;;;;;;;5031019;28;20018;-75
2023/08/19 07:54:45;;;;;;;20.35;10.63;;;;;;;;;;5031418;28;20033;-78
2023/08/19 07:57:11;;;;;;;12.75;10.38;;;;;;;;;;5029879;28;20044;-75
2023/08/19 07:59:38;;;;;;;19.88;10.55;;;;;;;;;;5031081;28;20029;-74
2023/08/19 08:02:04;;;;;;;14.90;10.18;;;;;;;;;;5030038;28;20052;-74
2023/08/19 08:04:30;;;;;;;25.15;10.75;;;;;;;;;;5030464;28;20076;-75
2023/08/19 08:06:56;;;;;;;15.02;10.27;;;;;;;;;;5029709;28;20474;-75
2023/08/19 08:09:22;;;;;;;13.07;10.10;;;;;;;;;;5030789;28;20472;-75
2023/08/19 08:11:48;;;;;;;15.10;10.40;;;;;;;;;;5031812;28;20467;-78
2023/08/19 08:14:15;;;;;;;15.32;9.57;;;;;;;;;;5033285;28;20033;-76
2023/08/19 08:16:41;;;;;;;14.43;10.07;;;;;;;;;;5028164;28;20476;-75
2023/08/19 08:19:07;;;;;;;16.35;10.05;;;;;;;;;;5028715;28;20040;-74
2023/08/19 08:21:33;;;;;;;15.00;10.48;;;;;;;;;;5028590;28;20036;-75
2023/08/19 08:23:59;;;;;;;14.77;10.23;;;;;;;;;;5029013;28;20053;-75
2023/08/19 08:26:25;;;;;;;17.02;9.55;;;;;;;;;;5031375;28;20139;-75
2023/08/19 08:28:51;;;;;;;12.18;9.77;;;;;;;;;;5033902;28;20107;-75
2023/08/19 08:31:17;;;;;;;13.30;11.60;;;;;;;;;;5034505;28;20426;-74
2023/08/19 08:33:43;;;;;;;15.57;9.38;;;;;;;;;;5031949;28;20025;-75
2023/08/19 08:36:09;;;;;;;12.70;9.35;;;;;;;;;;5032140;28;20079;-74
2023/08/19 08:38:35;;;;;;;14.18;9.57;;;;;;;;;;5032174;28;20037;-74
2023/08/19 08:41:04;;;;;;;22.30;9.43;;;;;;;;;;5031974;28;20434;-73
2023/08/19 08:43:33;;;;;;;17.75;9.20;;;;;;;;;;5031224;28;20506;-74
2023/08/19 08:46:00;;;;;;;13.57;9.25;;;;;;;;;;5032231;28;20013;-73
2023/08/19 08:48:29;;;;;;;15.38;9.40;;;;;;;;;;5030247;28;20418;-75
2023/08/19 08:50:56;;;;;;;11.95;8.77;;;;;;;;;;5031805;28;20529;-75
2023/08/19 08:53:22;;;;;;;18.73;9.07;;;;;;;;;;5031244;28;20116;-75
2023/08/19 08:55:48;;;;;;;13.98;9.63;;;;;;;;;;5032434;28;20109;-74
2023/08/19 08:58:14;;;;;;;12.10;8.68;;;;;;;;;;5031909;28;20379;-74
2023/08/19 09:00:41;;;;;;;16.83;10.10;;;;;;;;;;5030194;28;20032;-74
2023/08/19 09:03:08;;;;;;;12.98;9.27;;;;;;;;;;5031413;28;20067;-75
2023/08/19 09:05:36;;;;;;;18.42;9.48;;;;;;;;;;5034445;28;20472;-74
2023/08/19 09:08:03;;;;;;;13.90;9.18;;;;;;;;;;5035030;28;20033;-77
2023/08/19 09:10:31;;;;;;;14.40;10.23;;;;;;;;;;5035881;28;20051;-78
2023/08/19 09:12:58;;;;;;;15.48;9.55;;;;;;;;;;5036168;28;20432;-76
2023/08/19 09:15:30;;;;;;;16.27;9.80;;;;;;;;;;5037242;28;20050;-76
2023/08/19 09:17:56;;;;;;;15.70;10.02;;;;;;;;;;5037348;28;20418;-76
2023/08/19 09:20:24;;;;;;;13.73;10.07;;;;;;;;;;5037424;28;20072;-76
2023/08/19 09:22:50;;;;;;;14.50;9.43;;;;;;;;;;5039245;28;20018;-75
2023/08/19 09:25:16;;;;;;;17.52;11.13;;;;;;;;;;5037318;28;20030;-75
2023/08/19 09:27:44;;;;;;;14.55;10.00;;;;;;;;;;5037935;28;20047;-75
2023/08/19 09:30:13;;;;;;;17.20;9.75;;;;;;;;;;5037967;28;20029;-75
2023/08/19 09:32:41;;;;;;;14.63;9.85;;;;;;;;;;5037240;28;20506;-75
2023/08/19 09:35:08;;;;;;;12.45;9.23;;;;;;;;;;5036979;28;20376;-75
2023/08/19 09:37:35;;;;;;;17.33;9.43;;;;;;;;;;5036835;28;20045;-76
2023/08/19 09:40:07;;;;;;;17.63;9.85;;;;;;;;;;5034886;28;20052;-74
2023/08/19 09:42:34;;;;;;;14.95;9.27;;;;;;;;;;5036390;28;20373;-76
2023/08/19 09:45:00;;;;;;;12.57;9.77;;;;;;;;;;5038622;28;20029;-73
2023/08/19 09:47:28;;;;;;;12.88;9.82;;;;;;;;;;5034831;28;20032;-73
2023/08/19 09:49:56;;;;;;;15.77;9.50;;;;;;;;;;5035717;28;20087;-76
2023/08/19 09:52:22;;;;;;;12.88;9.25;;;;;;;;;;5035285;28;20025;-74
2023/08/19 09:54:52;;;;;;;14.65;8.95;;;;;;;;;;5034250;28;20045;-74
2023/08/19 09:57:19;;;;;;;12.30;9.43;;;;;;;;;;5034457;28;20028;-74
2023/08/19 09:59:44;;;;;;;15.18;9.60;;;;;;;;;;5034189;28;20052;-74
2023/08/19 10:02:12;;;;;;;14.07;8.63;;;;;;;;;;5033734;28;20095;-75
2023/08/19 10:04:38;;;;;;;15.48;9.23;;;;;;;;;;5032702;28;20030;-75
2023/08/19 10:07:05;;;;;;;15.70;9.70;;;;;;;;;;5032821;28;20453;-75
2023/08/19 10:09:31;;;;;;;13.25;8.73;;;;;;;;;;5033050;28;20223;-74
2023/08/19 10:12:00;;;;;;;14.48;9.98;;;;;;;;;;5032492;28;20104;-76
2023/08/19 10:14:28;;;;;;;12.10;9.68;;;;;;;;;;5033675;28;20511;-74
2023/08/19 10:16:55;;;;;;;15.48;9.88;;;;;;;;;;5034229;28;20456;-74
2023/08/19 10:19:22;;;;;;;16.23;9.90;;;;;;;;;;5033491;28;20029;-74
2023/08/19 10:21:49;;;;;;;15.68;10.25;;;;;;;;;;5032390;28;20088;-74
2023/08/19 10:24:17;;;;;;;12.40;9.38;;;;;;;;;;5032351;28;20477;-75
2023/08/19 10:26:47;;;;;;;18.73;11.38;;;;;;;;;;5032397;28;20379;-73
2023/08/19 10:29:13;;;;;;;25.55;14.05;;;;;;;;;;5032202;28;20332;-74
2023/08/19 10:31:42;;;;;;;14.55;9.82;;;;;;;;;;5032294;28;20020;-74
2023/08/19 10:34:12;;;;;;;15.13;10.13;;;;;;;;;;5032020;28;20101;-75
2023/08/19 10:36:39;;;;;;;14.90;10.45;;;;;;;;;;5032307;28;20025;-76
2023/08/19 10:39:14;;;;;;;18.10;10.88;;;;;;;;;;5032160;28;20028;-76
2023/08/19 10:41:40;;;;;;;16.23;10.65;;;;;;;;;;5032150;28;20049;-75
2023/08/19 10:44:07;;;;;;;13.02;9.90;;;;;;;;;;5031849;28;20029;-75
2023/08/19 10:46:51;;;;;;;12.90;10.13;;;;;;;;;;5031768;28;20108;-75
2023/08/19 10:49:21;;;;;;;15.68;10.00;;;;;;;;;;5032329;28;20028;-74
2023/08/19 10:52:03;;;;;;;17.17;11.20;;;;;;;;;;5032257;28;20479;-75
2023/08/19 10:54:41;;;;;;;12.48;9.57;;;;;;;;;;5033270;28;20106;-75
2023/08/19 10:57:23;;;;;;;17.40;9.85;;;;;;;;;;5045562;28;20029;-75
2023/08/19 10:59:59;;;;;;;15.07;10.30;;;;;;;;;;5032230;28;20021;-76
2023/08/19 11:02:26;;;;;;;13.02;10.52;;;;;;;;;;5032581;28;20395;-75
2023/08/19 11:04:53;;;;;;;15.02;9.80;;;;;;;;;;5032677;28;20018;-75
2023/08/19 11:07:20;;;;;;;12.25;9.05;;;;;;;;;;5033781;28;20017;-79
2023/08/19 11:09:47;;;;;;;12.32;9.68;;;;;;;;;;5034899;28;20033;-75
2023/08/19 11:12:15;;;;;;;18.05;9.18;;;;;;;;;;5032543;28;20102;-75
2023/08/19 11:14:45;;;;;;;15.75;9.38;;;;;;;;;;5032563;28;20038;-75
2023/08/19 11:17:11;;;;;;;12.10;9.10;;;;;;;;;;5032976;28;20021;-75
2023/08/19 11:19:37;;;;;;;15.63;10.15;;;;;;;;;;5032895;28;20034;-75
2023/08/19 11:22:03;;;;;;;14.00;9.60;;;;;;;;;;5032390;28;20026;-75
2023/08/19 11:24:33;;;;;;;19.65;9.95;;;;;;;;;;5031690;28;20460;-74
2023/08/19 11:27:00;;;;;;;12.80;9.13;;;;;;;;;;5032463;28;20022;-75
2023/08/19 11:29:26;;;;;;;15.82;9.45;;;;;;;;;;5032334;28;20083;-77
2023/08/19 11:31:52;;;;;;;15.20;9.68;;;;;;;;;;5033467;28;20061;-75
2023/08/19 11:34:18;;;;;;;16.73;9.48;;;;;;;;;;5034706;28;20112;-76
2023/08/19 11:36:45;;;;;;;15.55;9.30;;;;;;;;;;5036111;28;20550;-76
2023/08/19 11:39:11;;;;;;;17.50;9.82;;;;;;;;;;5035231;28;20030;-77
2023/08/19 11:41:37;;;;;;;15.18;9.20;;;;;;;;;;5034355;28;20022;-76
2023/08/19 11:44:04;;;;;;;11.32;9.10;;;;;;;;;;5033359;28;20029;-75
2023/08/19 11:46:30;;;;;;;11.05;9.30;;;;;;;;;;5032473;28;20475;-75
2023/08/19 11:49:01;;;;;;;12.85;9.43;;;;;;;;;;5032126;28;20442;-75
2023/08/19 11:51:27;;;;;;;18.77;10.15;;;;;;;;;;5032373;28;20526;-74
2023/08/19 11:53:54;;;;;;;22.30;10.00;;;;;;;;;;5032524;28;20063;-74
2023/08/19 11:56:20;;;;;;;17.00;10.23;;;;;;;;;;5032975;28;20029;-75
2023/08/19 11:58:50;;;;;;;14.13;10.30;;;;;;;;;;5032985;28;20033;-75
2023/08/19 12:01:19;;;;;;;12.45;10.35;;;;;;;;;;5036249;28;20100;-75
2023/08/19 12:03:46;;;;;;;15.93;10.27;;;;;;;;;;5035515;28;20034;-74
2023/08/19 12:06:13;;;;;;;12.55;10.15;;;;;;;;;;5035592;28;20036;-75
2023/08/19 12:08:40;;;;;;;13.10;11.00;;;;;;;;;;5035505;28;20017;-75
2023/08/19 12:11:06;;;;;;;13.40;10.75;;;;;;;;;;5034861;28;20022;-75
2023/08/19 12:13:32;;;;;;;15.45;10.02;;;;;;;;;;5034253;28;20037;-75
2023/08/19 12:15:58;;;;;;;13.63;10.50;;;;;;;;;;5035140;28;20029;-74
2023/08/19 12:18:24;;;;;;;16.48;11.13;;;;;;;;;;5035495;28;20542;-75
2023/08/19 12:20:51;;;;;;;16.10;10.43;;;;;;;;;;5034935;28;20034;-74
2023/08/19 12:23:17;;;;;;;20.63;11.05;;;;;;;;;;5034149;28;20022;-76
2023/08/19 12:25:54;;;;;;;15.23;10.45;;;;;;;;;;5034871;28;20033;-75
2023/08/19 12:28:20;;;;;;;17.08;10.32;;;;;;;;;;5035234;28;20021;-75
2023/08/19 12:30:46;;;;;;;17.13;11.00;;;;;;;;;;5034400;28;20519;-76
2023/08/19 12:33:13;;;;;;;17.48;10.27;;;;;;;;;;5034264;28;20044;-76
2023/08/19 12:35:41;;;;;;;23.63;10.70;;;;;;;;;;5035187;28;20427;-76
2023/08/19 12:38:08;;;;;;;15.75;10.55;;;;;;;;;;5035788;28;20025;-74
2023/08/19 12:40:35;;;;;;;19.92;10.52;;;;;;;;;;5034340;28;20108;-73
2023/08/19 12:43:01;;;;;;;16.70;10.52;;;;;;;;;;5033974;28;20068;-74
2023/08/19 12:45:27;;;;;;;19.25;10.40;;;;;;;;;;5034277;28;20057;-75
2023/08/19 12:47:53;;;;;;;11.35;9.88;;;;;;;;;;5034200;28;20052;-75
2023/08/19 12:50:21;;;;;;;14.82;10.73;;;;;;;;;;5038043;28;20030;-75
2023/08/19 12:52:48;;;;;;;13.38;11.00;;;;;;;;;;5038089;28;20044;-77
2023/08/19 12:55:14;;;;;;;16.65;11.05;;;;;;;;;;5035284;28;20030;-75
2023/08/19 12:57:43;;;;;;;13.73;10.70;;;;;;;;;;5034458;28;20028;-76
2023/08/19 13:00:10;;;;;;;12.70;10.32;;;;;;;;;;5034307;28;20025;-76
2023/08/19 13:02:36;;;;;;;16.17;10.18;;;;;;;;;;5034391;28;20029;-74
2023/08/19 13:05:02;;;;;;;21.42;11.27;;;;;;;;;;5032424;28;20522;-73
2023/08/19 13:07:28;;;;;;;14.98;10.70;;;;;;;;;;5033225;28;20478;-74
2023/08/19 13:09:54;;;;;;;15.10;11.38;;;;;;;;;;5033505;28;20061;-75
2023/08/19 13:12:20;;;;;;;15.77;10.73;;;;;;;;;;5033054;28;20048;-75
2023/08/19 13:14:46;;;;;;;17.00;10.85;;;;;;;;;;5033904;28;20091;-74
2023/08/19 13:17:12;;;;;;;15.93;11.00;;;;;;;;;;5033432;28;20022;-75
2023/08/19 13:19:38;;;;;;;14.88;10.85;;;;;;;;;;5033530;28;20033;-74
2023/08/19 13:22:04;;;;;;;14.90;10.43;;;;;;;;;;5032597;28;20041;-74
2023/08/19 13:24:30;;;;;;;14.68;10.90;;;;;;;;;;5033578;28;20022;-75
2023/08/19 13:26:57;;;;;;;19.80;11.48;;;;;;;;;;5033623;28;20438;-75
2023/08/19 13:29:22;;;;;;;24.75;12.40;;;;;;;;;;5033819;28;20025;-75
2023/08/19 13:31:48;;;;;;;15.45;10.55;;;;;;;;;;5033256;28;20022;-76
2023/08/19 13:34:15;;;;;;;16.58;10.85;;;;;;;;;;5034234;28;20025;-73
2023/08/19 13:36:41;;;;;;;16.45;11.52;;;;;;;;;;5033306;28;20021;-75
2023/08/19 13:39:07;;;;;;;18.70;10.65;;;;;;;;;;5035989;28;20026;-76
2023/08/19 13:41:33;;;;;;;14.38;10.98;;;;;;;;;;5035670;28;20045;-78
2023/08/19 13:43:59;;;;;;;13.57;11.00;;;;;;;;;;5033917;28;20225;-75
2023/08/19 13:46:25;;;;;;;17.75;10.48;;;;;;;;;;5033920;28;20372;-76
2023/08/19 13:48:51;;;;;;;13.13;10.07;;;;;;;;;;5034460;28;20022;-74
2023/08/19 13:51:20;;;;;;;17.60;10.18;;;;;;;;;;5034084;28;20074;-76
2023/08/19 13:53:46;;;;;;;15.50;10.20;;;;;;;;;;5033065;28;20434;-76
2023/08/19 13:56:12;;;;;;;12.73;9.68;;;;;;;;;;5034058;28;20022;-77
2023/08/19 13:58:38;;;;;;;12.10;9.77;;;;;;;;;;5035023;28;20464;-77
2023/08/19 14:01:04;;;;;;;16.92;9.98;;;;;;;;;;5033485;28;20021;-79
2023/08/19 14:03:31;;;;;;;13.73;9.38;;;;;;;;;;5034431;28;20048;-78
2023/08/19 14:05:57;;;;;;;14.20;9.90;;;;;;;;;;5034896;28;20021;-81
2023/08/19 14:08:23;;;;;;;11.80;9.73;;;;;;;;;;5035621;28;20022;-81
2023/08/19 14:10:51;;;;;;;12.27;9.27;;;;;;;;;;5036476;28;20412;-75
2023/08/19 14:13:18;;;;;;;12.50;9.65;;;;;;;;;;5032018;28;20379;-75
2023/08/19 14:15:44;;;;;;;16.08;10.30;;;;;;;;;;5034376;28;20220;-76
2023/08/19 14:18:10;;;;;;;13.40;9.57;;;;;;;;;;5032316;28;20025;-75
2023/08/19 14:20:36;;;;;;;11.43;9.40;;;;;;;;;;5033458;28;20064;-77